Schedule Details

Flight Number: CPX437
Departure: Cincinnati/Northern Kentucky International Airport (KCVG) at N/A
Arrival: Philadelphia International Airport (KPHL) at N/A
Route: ROCKT9 AHTIY JST BOJID2


Current Weather Information
KCVG 180552Z 27011KT 8SM OVC009 01/M02 A2991 RMK AO2 SLP135 I6001 T00061017 10006 20000 53023
KPHL 180554Z 09006KT 7SM -RA BKN010 OVC018 02/01 A2990 RMK AO2 SLP125 P0003 60023 T00170006 10028 20011 56034 $

Route Map